createdAt,value
2018-12-22T00:02:18.626Z,83.43
2018-12-22T00:04:50.487Z,79.27
2018-12-22T00:07:22.303Z,75.57
2018-12-22T00:09:55.029Z,77.63
2018-12-22T00:12:26.900Z,76.57
2018-12-22T00:14:59.086Z,70.93
2018-12-22T00:17:30.751Z,86.83
2018-12-22T00:20:02.412Z,95.53
2018-12-22T00:22:34.483Z,100.17
2018-12-22T00:25:06.458Z,99.83
2018-12-22T00:27:38.887Z,96.40
2018-12-22T00:30:12.963Z,99.97
2018-12-22T00:32:45.300Z,95.60
2018-12-22T00:35:17.478Z,87.77
2018-12-22T00:37:49.553Z,88.97
2018-12-22T00:40:22.017Z,91.37
2018-12-22T00:42:54.200Z,92.90
2018-12-22T00:45:26.525Z,101.90
2018-12-22T00:47:58.508Z,90.80
2018-12-22T00:50:30.608Z,101.00
2018-12-22T00:53:02.406Z,92.73
2018-12-22T00:55:34.171Z,91.17
2018-12-22T00:58:06.374Z,95.00
2018-12-22T01:00:38.877Z,90.17
2018-12-22T01:03:11.984Z,87.53
2018-12-22T01:05:44.325Z,92.43
2018-12-22T01:08:16.114Z,85.73
2018-12-22T01:10:48.130Z,89.80
2018-12-22T01:13:20.216Z,79.23
2018-12-22T01:15:52.296Z,73.03
2018-12-22T01:18:24.974Z,69.50
2018-12-22T01:20:56.649Z,69.63
2018-12-22T01:23:29.288Z,73.83
2018-12-22T01:26:02.170Z,68.77
2018-12-22T01:28:39.323Z,62.17
2018-12-22T01:31:08.194Z,55.73
2018-12-22T01:33:40.645Z,56.50
2018-12-22T01:36:13.170Z,57.87
2018-12-22T01:38:45.017Z,54.33
2018-12-22T01:41:16.868Z,58.63
2018-12-22T01:43:48.960Z,57.97
2018-12-22T01:46:20.760Z,57.83
2018-12-22T01:48:52.588Z,55.87
2018-12-22T01:51:24.809Z,58.83
2018-12-22T01:53:56.804Z,59.07
2018-12-22T01:56:29.037Z,59.03
2018-12-22T01:59:01.766Z,64.40
2018-12-22T02:01:33.594Z,61.70
2018-12-22T02:04:06.396Z,56.87
2018-12-22T02:06:39.402Z,54.80
2018-12-22T02:09:12.409Z,61.63
2018-12-22T02:11:44.764Z,58.57
2018-12-22T02:14:16.583Z,58.70
2018-12-22T02:16:48.490Z,64.07
2018-12-22T02:19:20.894Z,65.90
2018-12-22T02:21:52.596Z,65.77
2018-12-22T02:24:25.375Z,67.43
2018-12-22T02:26:58.253Z,65.87
2018-12-22T02:29:30.303Z,66.17
2018-12-22T02:32:02.342Z,67.50
2018-12-22T02:34:34.917Z,70.33
2018-12-22T02:37:06.842Z,71.43
2018-12-22T02:39:39.575Z,72.60
2018-12-22T02:42:11.699Z,65.67
2018-12-22T02:44:43.914Z,65.80
2018-12-22T02:47:15.710Z,70.73
2018-12-22T02:49:48.372Z,70.63
2018-12-22T02:52:20.479Z,64.87
2018-12-22T02:54:52.355Z,60.43
2018-12-22T02:57:24.398Z,65.87
2018-12-22T02:59:56.318Z,58.60
2018-12-22T03:02:28.359Z,62.43
2018-12-22T03:05:00.834Z,59.90
2018-12-22T03:07:32.591Z,60.67
2018-12-22T03:10:05.350Z,59.83
2018-12-22T03:12:37.895Z,63.23
2018-12-22T03:15:09.837Z,75.77
2018-12-22T03:17:41.877Z,80.70
2018-12-22T03:20:13.794Z,68.10
2018-12-22T03:22:45.779Z,65.90
2018-12-22T03:25:18.566Z,68.07
2018-12-22T03:27:50.309Z,64.47
2018-12-22T03:30:22.231Z,61.87
2018-12-22T03:32:54.000Z,54.00
2018-12-22T03:35:26.074Z,54.53
2018-12-22T03:37:57.889Z,53.33
2018-12-22T03:40:30.662Z,52.10
2018-12-22T03:43:02.602Z,50.63
2018-12-22T03:45:34.758Z,48.03
2018-12-22T03:48:07.076Z,49.00
2018-12-22T03:50:39.254Z,49.50
2018-12-22T03:53:11.195Z,48.07
2018-12-22T03:55:43.280Z,49.57
2018-12-22T03:58:16.804Z,54.13
2018-12-22T04:00:48.723Z,58.93
2018-12-22T04:03:20.630Z,56.30
2018-12-22T04:05:52.493Z,59.53
2018-12-22T04:08:24.631Z,56.73
2018-12-22T04:10:56.531Z,57.30
2018-12-22T04:13:28.480Z,58.97
2018-12-22T04:16:00.323Z,61.53
2018-12-22T04:18:32.738Z,61.07
2018-12-22T04:21:05.029Z,62.73
2018-12-22T04:23:36.840Z,59.00
2018-12-22T04:26:09.319Z,57.97
2018-12-22T04:28:41.345Z,56.17
2018-12-22T04:31:13.482Z,56.57
2018-12-22T04:33:45.420Z,61.03
2018-12-22T04:36:18.791Z,58.73
2018-12-22T04:38:51.056Z,71.97
2018-12-22T04:41:22.929Z,84.07
2018-12-22T04:43:55.253Z,70.57
2018-12-22T04:46:27.409Z,63.50
2018-12-22T04:48:59.717Z,59.23
2018-12-22T04:51:31.531Z,54.60
2018-12-22T04:54:04.463Z,58.57
2018-12-22T04:56:36.809Z,65.07
2018-12-22T04:59:09.112Z,69.13
2018-12-22T05:01:42.107Z,62.13
2018-12-22T05:04:13.862Z,62.73
2018-12-22T05:06:45.573Z,58.63
2018-12-22T05:09:17.610Z,60.83
2018-12-22T05:11:50.218Z,61.10
2018-12-22T05:14:23.158Z,60.50
2018-12-22T05:16:54.919Z,61.07
2018-12-22T05:19:26.912Z,66.63
2018-12-22T05:21:58.751Z,53.37
2018-12-22T05:24:31.306Z,69.97
2018-12-22T05:27:02.966Z,64.33
2018-12-22T05:29:35.335Z,65.20
2018-12-22T05:32:07.176Z,58.43
2018-12-22T05:34:38.854Z,54.43
2018-12-22T05:37:11.001Z,56.63
2018-12-22T05:39:42.693Z,59.93
2018-12-22T05:42:15.265Z,59.43
2018-12-22T05:44:48.156Z,59.97
2018-12-22T05:47:20.141Z,57.40
2018-12-22T05:49:51.961Z,56.30
2018-12-22T05:52:24.841Z,63.23
2018-12-22T05:54:57.028Z,58.90
2018-12-22T05:57:28.972Z,57.27
2018-12-22T06:00:01.051Z,52.93
2018-12-22T06:02:33.053Z,54.43
2018-12-22T06:05:07.318Z,51.37
2018-12-22T06:07:39.336Z,51.77
2018-12-22T06:10:11.479Z,64.33
2018-12-22T06:12:44.328Z,53.27
2018-12-22T06:15:16.182Z,53.43
2018-12-22T06:17:48.548Z,56.27
2018-12-22T06:20:20.381Z,55.37
2018-12-22T06:22:52.069Z,58.80
2018-12-22T06:25:24.194Z,59.37
2018-12-22T06:27:55.581Z,60.23
2018-12-22T06:30:27.419Z,62.70
2018-12-22T06:32:59.364Z,63.13
2018-12-22T06:35:32.479Z,59.50
2018-12-22T06:38:04.456Z,59.60
2018-12-22T06:40:36.417Z,58.60
2018-12-22T06:43:08.012Z,58.57
2018-12-22T06:45:40.130Z,58.13
2018-12-22T06:48:12.132Z,56.20
2018-12-22T06:50:43.987Z,59.13
2018-12-22T06:53:16.301Z,55.37
2018-12-22T06:55:48.399Z,62.77
2018-12-22T06:58:19.735Z,68.83
2018-12-22T07:00:51.724Z,65.00
2018-12-22T07:03:23.960Z,63.30
2018-12-22T07:05:56.290Z,62.20
2018-12-22T07:08:28.419Z,65.03
2018-12-22T07:11:00.220Z,72.00
2018-12-22T07:13:33.098Z,84.87
2018-12-22T07:16:07.409Z,69.83
2018-12-22T07:18:39.549Z,73.63
2018-12-22T07:21:11.399Z,72.47
2018-12-22T07:23:43.212Z,66.73
2018-12-22T07:26:15.129Z,75.80
2018-12-22T07:28:47.159Z,77.20
2018-12-22T07:31:19.585Z,75.77
2018-12-22T07:33:51.659Z,83.33
2018-12-22T07:36:25.260Z,75.40
2018-12-22T07:38:57.829Z,66.67
2018-12-22T07:41:30.076Z,65.73
2018-12-22T07:44:02.234Z,66.33
2018-12-22T07:46:34.101Z,70.23
2018-12-22T07:49:06.415Z,68.83
2018-12-22T07:51:38.285Z,62.37
2018-12-22T07:54:10.511Z,65.60
2018-12-22T07:56:42.687Z,67.60
2018-12-22T07:59:14.562Z,67.07
2018-12-22T08:01:46.956Z,64.37
2018-12-22T08:04:18.902Z,59.17
2018-12-22T08:06:51.170Z,61.30
2018-12-22T08:09:23.777Z,61.63
2018-12-22T08:11:55.740Z,65.17
2018-12-22T08:14:27.702Z,61.57
2018-12-22T08:17:00.157Z,61.00
2018-12-22T08:19:32.156Z,63.00
2018-12-22T08:22:04.962Z,69.03
2018-12-22T08:24:37.009Z,76.00
2018-12-22T08:27:08.819Z,74.23
2018-12-22T08:29:40.982Z,76.40
2018-12-22T08:32:12.547Z,70.73
2018-12-22T08:34:44.711Z,72.03
2018-12-22T08:37:17.485Z,83.70
2018-12-22T08:39:50.837Z,80.40
2018-12-22T08:42:23.002Z,79.70
2018-12-22T08:44:54.922Z,76.93
2018-12-22T08:47:26.431Z,78.27
2018-12-22T08:49:58.392Z,74.97
2018-12-22T08:52:31.017Z,77.23
2018-12-22T08:55:03.194Z,91.30
2018-12-22T08:57:35.145Z,88.60
2018-12-22T09:00:10.901Z,79.80
2018-12-22T09:02:42.846Z,81.57
2018-12-22T09:05:15.068Z,81.33
2018-12-22T09:07:47.200Z,86.97
2018-12-22T09:10:18.943Z,79.00
2018-12-22T09:12:51.406Z,74.47
2018-12-22T09:15:24.047Z,74.63
2018-12-22T09:17:56.302Z,71.63
2018-12-22T09:20:28.580Z,77.07
2018-12-22T09:23:00.491Z,88.03
2018-12-22T09:25:32.538Z,82.27
2018-12-22T09:28:04.578Z,86.23
2018-12-22T09:30:36.993Z,86.27
2018-12-22T09:33:09.093Z,88.20
2018-12-22T09:35:41.240Z,83.03
2018-12-22T09:38:13.700Z,98.90
2018-12-22T09:40:45.666Z,91.57
2018-12-22T09:43:17.465Z,78.97
2018-12-22T09:45:49.637Z,83.23
2018-12-22T09:48:22.610Z,92.03
2018-12-22T09:50:54.644Z,96.67
2018-12-22T09:53:26.848Z,94.80
2018-12-22T09:55:58.871Z,81.37
2018-12-22T09:58:30.856Z,85.43
2018-12-22T10:01:09.243Z,87.23
2018-12-22T10:03:37.456Z,93.23
2018-12-22T10:06:10.258Z,86.17
2018-12-22T10:08:42.353Z,88.30
2018-12-22T10:11:16.465Z,91.47
2018-12-22T10:13:48.795Z,93.13
2018-12-22T10:16:21.794Z,89.07
2018-12-22T10:18:54.260Z,89.23
2018-12-22T10:21:26.684Z,95.10
2018-12-22T10:23:58.946Z,91.97
2018-12-22T10:26:31.527Z,89.07
2018-12-22T10:29:03.812Z,88.23
2018-12-22T10:31:36.826Z,92.10
2018-12-22T10:34:09.312Z,93.57
2018-12-22T10:36:41.884Z,100.43
2018-12-22T10:39:13.736Z,102.07
2018-12-22T10:41:45.998Z,111.10
2018-12-22T10:44:18.347Z,99.37
2018-12-22T10:46:50.595Z,93.00
2018-12-22T10:49:22.880Z,95.80
2018-12-22T10:51:55.050Z,94.50
2018-12-22T10:54:27.540Z,94.93
2018-12-22T10:57:00.061Z,94.23
2018-12-22T10:59:32.466Z,100.40
2018-12-22T11:02:04.483Z,99.60
2018-12-22T11:04:37.363Z,92.67
2018-12-22T11:07:09.344Z,99.63
2018-12-22T11:09:42.309Z,100.20
2018-12-22T11:12:14.549Z,101.07
2018-12-22T11:14:47.030Z,100.47
2018-12-22T11:17:19.564Z,97.73
2018-12-22T11:19:52.576Z,105.37
2018-12-22T11:22:24.637Z,99.80
2018-12-22T11:24:56.961Z,102.83
2018-12-22T11:27:29.150Z,111.80
2018-12-22T11:30:01.438Z,108.03
2018-12-22T11:32:33.940Z,108.13
2018-12-22T11:35:06.211Z,106.03
2018-12-22T11:37:38.117Z,100.23
2018-12-22T11:40:11.499Z,101.47
2018-12-22T11:42:47.587Z,97.87
2018-12-22T11:45:18.579Z,98.80
2018-12-22T11:48:24.149Z,97.50
2018-12-22T11:50:57.169Z,95.90
2018-12-22T11:53:29.426Z,105.47
2018-12-22T11:56:01.931Z,104.63
2018-12-22T11:58:34.978Z,97.00
2018-12-22T12:01:07.057Z,97.63
2018-12-22T12:03:52.181Z,95.73
2018-12-22T12:06:23.176Z,99.80
2018-12-22T12:08:54.225Z,100.23
2018-12-22T12:11:25.422Z,99.03
2018-12-22T12:13:56.578Z,97.20
2018-12-22T12:16:44.652Z,101.70
2018-12-22T12:19:23.885Z,98.90
2018-12-22T12:21:54.831Z,103.50
2018-12-22T12:24:26.634Z,100.00
2018-12-22T12:26:58.118Z,93.30
2018-12-22T12:29:29.549Z,117.13
2018-12-22T12:32:00.577Z,108.97
2018-12-22T12:34:31.633Z,111.67
2018-12-22T12:37:02.606Z,111.37
2018-12-22T12:39:33.547Z,113.97
2018-12-22T12:42:04.580Z,116.60
2018-12-22T12:44:35.956Z,117.20
2018-12-22T12:47:07.026Z,118.50
2018-12-22T12:49:37.904Z,119.77
2018-12-22T12:52:08.956Z,111.37
2018-12-22T12:54:39.929Z,121.43
2018-12-22T12:57:11.188Z,120.90
2018-12-22T12:59:42.773Z,118.23
2018-12-22T13:02:13.998Z,115.13
2018-12-22T13:04:45.102Z,127.03
2018-12-22T13:07:16.146Z,125.57
2018-12-22T13:09:47.548Z,120.73
2018-12-22T13:12:24.248Z,120.03
2018-12-22T13:14:55.302Z,126.83
2018-12-22T13:17:26.918Z,121.47
2018-12-22T13:19:58.166Z,127.93
2018-12-22T13:22:29.513Z,126.33
2018-12-22T13:25:00.663Z,131.17
2018-12-22T13:27:31.794Z,136.77
2018-12-22T13:30:02.933Z,128.00
2018-12-22T13:32:34.192Z,130.47
2018-12-22T13:35:06.727Z,124.07
2018-12-22T13:37:38.061Z,156.20
2018-12-22T13:40:11.133Z,189.70
2018-12-22T13:42:42.199Z,154.13
2018-12-22T13:45:13.338Z,146.77
2018-12-22T13:47:44.646Z,150.10
2018-12-22T13:50:16.091Z,150.83
2018-12-22T13:52:47.194Z,151.50
2018-12-22T13:55:18.304Z,150.27
2018-12-22T13:57:49.527Z,149.17
2018-12-22T14:00:20.759Z,143.37
2018-12-22T14:02:52.011Z,160.20
2018-12-22T14:05:23.915Z,135.63
2018-12-22T14:07:55.126Z,131.17
2018-12-22T14:10:26.457Z,131.53
2018-12-22T14:12:57.616Z,138.57
2018-12-22T14:15:28.697Z,170.57
2018-12-22T14:18:17.577Z,171.93
2018-12-22T14:20:48.555Z,147.10
2018-12-22T14:23:20.655Z,150.80
2018-12-22T14:25:51.733Z,166.40
2018-12-22T14:28:22.955Z,131.47
2018-12-22T14:30:54.041Z,123.73
2018-12-22T14:33:25.482Z,109.27
2018-12-22T14:36:04.151Z,111.97
2018-12-22T14:38:35.302Z,115.93
2018-12-22T14:41:06.309Z,113.73
2018-12-22T14:43:37.588Z,109.23
2018-12-22T14:46:08.591Z,126.50
2018-12-22T14:48:39.725Z,120.00
2018-12-22T14:51:10.881Z,113.57
2018-12-22T14:53:42.058Z,115.10
2018-12-22T14:56:13.375Z,129.00
2018-12-22T14:58:44.533Z,128.37
2018-12-22T15:01:15.697Z,140.32
2018-12-22T15:03:46.985Z,131.00
2018-12-22T15:06:18.173Z,133.83
2018-12-22T15:08:49.382Z,126.43
2018-12-22T15:11:20.476Z,120.20
2018-12-22T15:13:51.513Z,119.97
2018-12-22T15:16:22.805Z,123.63
2018-12-22T15:18:54.112Z,128.63
2018-12-22T15:21:25.130Z,156.70
2018-12-22T15:23:56.293Z,136.77
2018-12-22T15:26:27.708Z,137.07
2018-12-22T15:28:59.053Z,129.57
2018-12-22T15:31:31.654Z,128.07
2018-12-22T15:34:02.953Z,129.03
2018-12-22T15:36:34.258Z,132.03
2018-12-22T15:39:07.658Z,122.80
2018-12-22T15:41:40.035Z,129.67
2018-12-22T15:44:12.115Z,128.77
2018-12-22T15:46:43.415Z,135.10
2018-12-22T15:49:16.377Z,133.53
2018-12-22T15:51:47.559Z,129.27
2018-12-22T15:54:18.710Z,144.13
2018-12-22T15:56:50.245Z,140.03
2018-12-22T15:59:21.605Z,138.43
2018-12-22T16:01:52.799Z,144.17
2018-12-22T16:04:24.014Z,158.20
2018-12-22T16:06:55.098Z,158.03
2018-12-22T16:09:26.187Z,179.57
2018-12-22T16:11:57.474Z,183.70
2018-12-22T16:14:28.618Z,169.40
2018-12-22T16:17:01.018Z,164.23
2018-12-22T16:19:32.813Z,169.13
2018-12-22T16:22:04.493Z,161.93
2018-12-22T16:24:35.600Z,165.07
2018-12-22T16:27:07.807Z,156.70
2018-12-22T16:29:44.328Z,159.17
2018-12-22T16:32:15.454Z,147.00
2018-12-22T16:34:46.491Z,171.57
2018-12-22T16:37:17.838Z,189.63
2018-12-22T16:39:48.836Z,170.33
2018-12-22T16:42:19.989Z,184.77
2018-12-22T16:44:51.617Z,194.17
2018-12-22T16:47:22.773Z,175.07
2018-12-22T16:49:54.340Z,175.97
2018-12-22T16:52:25.496Z,175.53
2018-12-22T16:54:56.624Z,170.17
2018-12-22T16:57:27.713Z,167.50
2018-12-22T16:59:58.752Z,180.63
2018-12-22T17:02:45.786Z,176.57
2018-12-22T17:05:16.928Z,187.30
2018-12-22T17:07:47.966Z,173.03
2018-12-22T17:10:24.641Z,157.20
2018-12-22T17:12:56.109Z,169.73
2018-12-22T17:15:27.223Z,169.47
2018-12-22T17:17:58.218Z,175.43
2018-12-22T17:20:31.974Z,184.30
2018-12-22T17:23:51.393Z,159.17
2018-12-22T17:26:24.472Z,156.60
2018-12-22T17:28:56.188Z,153.63
2018-12-22T17:31:27.471Z,150.57
2018-12-22T17:33:58.590Z,167.80
2018-12-22T17:36:29.741Z,176.27
2018-12-22T17:39:00.993Z,187.30
2018-12-22T17:41:32.379Z,168.63
2018-12-22T17:44:03.525Z,169.60
2018-12-22T17:46:34.643Z,161.23
2018-12-22T17:49:05.844Z,256.90
2018-12-22T17:51:38.958Z,191.73
2018-12-22T17:54:10.066Z,171.00
2018-12-22T17:56:41.243Z,141.83
2018-12-22T17:59:12.276Z,171.23
2018-12-22T18:01:44.246Z,188.00
2018-12-22T18:04:15.304Z,236.20
2018-12-22T18:06:46.374Z,163.73
2018-12-22T18:09:17.801Z,157.80
2018-12-22T18:11:49.028Z,156.20
2018-12-22T18:14:20.551Z,178.50
2018-12-22T18:16:52.429Z,179.83
2018-12-22T18:19:24.050Z,180.63
2018-12-22T18:21:55.553Z,171.03
2018-12-22T18:24:26.789Z,175.90
2018-12-22T18:26:58.105Z,208.67
2018-12-22T18:29:29.432Z,172.37
2018-12-22T18:32:00.452Z,162.73
2018-12-22T18:34:31.494Z,167.07
2018-12-22T18:37:02.610Z,156.53
2018-12-22T18:39:33.694Z,150.80
2018-12-22T18:42:04.784Z,138.00
2018-12-22T18:44:35.824Z,183.27
2018-12-22T18:47:06.993Z,161.77
2018-12-22T18:49:38.192Z,149.23
2018-12-22T18:52:09.242Z,150.40
2018-12-22T18:54:40.512Z,143.93
2018-12-22T18:57:12.450Z,148.40
2018-12-22T18:59:43.655Z,160.73
2018-12-22T19:02:15.135Z,173.23
2018-12-22T19:04:47.245Z,164.13
2018-12-22T19:07:20.271Z,169.63
2018-12-22T19:09:52.161Z,172.27
2018-12-22T19:12:23.260Z,188.07
2018-12-22T19:14:54.151Z,178.07
2018-12-22T19:17:25.178Z,157.07
2018-12-22T19:19:56.449Z,168.50
2018-12-22T19:22:28.266Z,171.57
2018-12-22T19:24:59.425Z,186.47
2018-12-22T19:27:30.644Z,168.20
2018-12-22T19:30:01.891Z,173.87
2018-12-22T19:32:33.133Z,172.03
2018-12-22T19:35:04.569Z,165.37
2018-12-22T19:37:35.670Z,174.47
2018-12-22T19:40:07.254Z,181.13
2018-12-22T19:42:38.395Z,180.77
2018-12-22T19:45:09.776Z,176.77
2018-12-22T19:47:40.881Z,179.40
2018-12-22T19:50:12.011Z,170.57
2018-12-22T19:52:44.285Z,175.33
2018-12-22T19:55:15.241Z,178.73
2018-12-22T19:57:46.259Z,170.90
2018-12-22T20:00:17.593Z,152.43
2018-12-22T20:02:48.893Z,188.60
2018-12-22T20:05:19.872Z,172.83
2018-12-22T20:07:51.110Z,141.70
2018-12-22T20:10:22.286Z,123.97
2018-12-22T20:12:53.380Z,113.13
2018-12-22T20:15:24.338Z,96.43
2018-12-22T20:17:55.422Z,73.63
2018-12-22T20:20:26.488Z,187.83
2018-12-22T20:22:57.470Z,259.60
2018-12-22T20:25:28.493Z,204.67
2018-12-22T20:27:59.610Z,597.43
2018-12-22T20:30:30.599Z,306.97
2018-12-22T20:33:02.028Z,201.97
2018-12-22T20:35:32.980Z,198.43
2018-12-22T20:38:04.108Z,230.80
2018-12-22T20:40:35.196Z,200.43
2018-12-22T20:43:06.416Z,174.93
2018-12-22T20:45:37.582Z,163.07
2018-12-22T20:48:08.672Z,155.37
2018-12-22T20:50:39.615Z,145.60
2018-12-22T20:53:10.581Z,154.33
2018-12-22T20:55:41.830Z,154.27
2018-12-22T20:58:12.948Z,165.80
2018-12-22T21:00:43.988Z,164.50
2018-12-22T21:03:15.063Z,155.13
2018-12-22T21:05:58.893Z,152.70
2018-12-22T21:08:30.665Z,152.27
2018-12-22T21:11:01.937Z,169.03
2018-12-22T21:13:32.934Z,151.83
2018-12-22T21:16:03.870Z,146.77
2018-12-22T21:18:34.951Z,157.70
2018-12-22T21:21:05.954Z,157.57
2018-12-22T21:23:37.128Z,163.87
2018-12-22T21:26:08.323Z,181.43
2018-12-22T21:28:39.313Z,160.07
2018-12-22T21:31:10.287Z,156.20
2018-12-22T21:33:41.606Z,154.93
2018-12-22T21:36:12.717Z,150.60
2018-12-22T21:38:43.770Z,153.03
2018-12-22T21:41:14.876Z,150.93
2018-12-22T21:43:45.908Z,152.73
2018-12-22T21:46:17.001Z,157.20
2018-12-22T21:48:48.471Z,143.93
2018-12-22T21:51:19.563Z,141.80
2018-12-22T21:53:50.800Z,147.93
2018-12-22T21:56:21.813Z,150.23
2018-12-22T21:58:52.773Z,141.63
2018-12-22T22:01:23.720Z,145.90
2018-12-22T22:03:54.773Z,145.43
2018-12-22T22:06:25.943Z,146.53
2018-12-22T22:08:56.865Z,137.63
2018-12-22T22:11:27.885Z,134.67
2018-12-22T22:13:59.077Z,134.30
2018-12-22T22:16:30.031Z,143.10
2018-12-22T22:19:00.933Z,156.87
2018-12-22T22:21:31.952Z,155.80
2018-12-22T22:24:03.040Z,151.97
2018-12-22T22:26:34.180Z,145.73
2018-12-22T22:29:05.324Z,143.13
2018-12-22T22:31:36.264Z,152.73
2018-12-22T22:34:07.174Z,128.87
2018-12-22T22:36:38.945Z,113.83
2018-12-22T22:39:10.338Z,63.53
2018-12-22T22:41:41.195Z,91.10
2018-12-22T22:44:12.167Z,58.27
2018-12-22T22:46:43.218Z,47.07
2018-12-22T22:49:14.331Z,34.10
2018-12-22T22:51:45.405Z,106.60
2018-12-22T22:54:16.650Z,110.87
2018-12-22T22:56:47.568Z,105.10
2018-12-22T22:59:18.858Z,98.30
2018-12-22T23:01:49.717Z,98.93
2018-12-22T23:04:22.500Z,82.50
2018-12-22T23:06:53.725Z,60.87
2018-12-22T23:09:24.867Z,72.23
2018-12-22T23:11:55.865Z,46.93
2018-12-22T23:14:26.723Z,47.77
2018-12-22T23:16:57.742Z,51.33
2018-12-22T23:19:28.799Z,95.80
2018-12-22T23:21:59.742Z,71.77
2018-12-22T23:24:30.500Z,107.57
2018-12-22T23:27:01.373Z,118.63
2018-12-22T23:29:32.520Z,122.57
2018-12-22T23:32:03.767Z,124.03
2018-12-22T23:34:34.932Z,121.17
2018-12-22T23:37:05.778Z,118.23
2018-12-22T23:39:37.252Z,118.70
2018-12-22T23:42:08.267Z,113.23
2018-12-22T23:44:39.755Z,114.53
2018-12-22T23:47:10.617Z,123.60
2018-12-22T23:49:41.715Z,123.13
2018-12-22T23:52:13.057Z,126.47
2018-12-22T23:54:43.870Z,135.03
2018-12-22T23:57:14.963Z,126.67
2018-12-22T23:59:46.217Z,115.63
